Time;durP1;ratioP1;P1;durP2;ratioP2;P2;SDS_P1;SDS_P2;PMS_P1;PMS_P2;Temp;Humidity;BMP_temperature;BMP_pressure;BME280_temperature;BME280_humidity;BME280_pressure;Samples;Min_cycle;Max_cycle;Signal;HPM_P1;HPM_P2
2023/01/17 00:00:25;;;;;;;;;;;20.20;50.70;;;;;;6041050;29;20410;-53
2023/01/17 00:03:27;;;;;;;;;;;19.80;50.50;;;;;;6057186;29;20019;-52
2023/01/17 00:13:02;;;;;;;;;;;20.20;50.60;;;;;;6042319;29;20412;-52
2023/01/17 00:16:03;;;;;;;;;;;19.80;50.50;;;;;;6040519;29;20388;-52
2023/01/17 01:36:02;;;;;;;;;;;19.90;50.50;;;;;;6063056;29;19983;-54
2023/01/17 01:39:03;;;;;;;;;;;20.10;50.60;;;;;;6063480;29;19972;-50
2023/01/17 01:42:08;;;;;;;;;;;20.10;50.70;;;;;;6063102;29;19932;-52
2023/01/17 01:45:15;;;;;;;;;;;19.70;50.30;;;;;;6059488;29;20377;-52
2023/01/17 01:48:21;;;;;;;;;;;19.80;50.30;;;;;;6059442;29;19924;-51
2023/01/17 01:51:25;;;;;;;;;;;20.10;50.60;;;;;;6059727;29;20372;-50
2023/01/17 01:54:28;;;;;;;;;;;19.80;50.40;;;;;;6059645;29;19940;-52
2023/01/17 01:57:33;;;;;;;;;;;19.60;50.30;;;;;;6059736;29;19931;-51
2023/01/17 02:00:35;;;;;;;;;;;19.80;50.30;;;;;;6059277;29;19924;-50
2023/01/17 02:03:38;;;;;;;;;;;19.70;50.40;;;;;;6059502;29;19924;-52
2023/01/17 02:06:42;;;;;;;;;;;20.00;50.60;;;;;;6059292;29;19923;-50
2023/01/17 02:09:44;;;;;;;;;;;19.70;50.40;;;;;;6077077;23;19924;-51
2023/01/17 02:12:45;;;;;;;;;;;20.00;50.60;;;;;;6048591;29;19931;-52
2023/01/17 02:15:53;;;;;;;;;;;20.20;50.50;;;;;;6048709;29;19935;-51
2023/01/17 02:19:00;;;;;;;;;;;20.10;50.60;;;;;;6048805;29;19931;-52
2023/01/17 02:22:07;;;;;;;;;;;20.40;50.70;;;;;;6048257;29;19928;-52
2023/01/17 02:25:18;;;;;;;;;;;20.00;50.50;;;;;;6051899;29;19924;-50
2023/01/17 02:28:29;;;;;;;;;;;19.70;50.40;;;;;;6048993;29;19924;-50
2023/01/17 02:31:33;;;;;;;;;;;20.00;50.40;;;;;;6045021;29;19935;-48
2023/01/17 02:34:39;;;;;;;;;;;19.80;50.50;;;;;;6029457;29;19930;-49
2023/01/17 02:37:44;;;;;;;;;;;20.00;50.70;;;;;;6045774;29;19928;-48
2023/01/17 02:40:48;;;;;;;;;;;19.80;50.50;;;;;;6045565;29;19924;-49
2023/01/17 02:43:50;;;;;;;;;;;20.10;50.60;;;;;;6031446;29;19931;-49
2023/01/17 02:46:53;;;;;;;;;;;20.70;51.00;;;;;;6051032;29;19924;-51
2023/01/17 02:49:55;;;;;;;;;;;19.60;50.50;;;;;;6018782;29;19924;-48
2023/01/17 02:53:04;;;;;;;;;;;19.70;50.50;;;;;;6032287;29;19924;-51
2023/01/17 02:56:10;;;;;;;;;;;19.90;50.50;;;;;;6048152;29;19928;-47
2023/01/17 02:59:18;;;;;;;;;;;19.70;50.50;;;;;;6050626;29;19953;-49
2023/01/17 03:02:25;;;;;;;;;;;19.90;50.50;;;;;;6050547;29;20368;-52
2023/01/17 03:05:30;;;;;;;;;;;19.70;50.50;;;;;;6046987;29;19976;-49
2023/01/17 03:08:32;;;;;;;;;;;20.00;50.60;;;;;;6047488;29;20407;-50
2023/01/17 03:11:34;;;;;;;;;;;20.40;50.90;;;;;;6047806;29;19928;-51
2023/01/17 03:14:35;;;;;;;;;;;19.90;50.90;;;;;;6049188;29;20380;-51
2023/01/17 03:17:38;;;;;;;;;;;19.80;50.70;;;;;;6046658;29;19992;-51
2023/01/17 03:20:39;;;;;;;;;;;20.00;50.90;;;;;;6046326;29;19924;-51
2023/01/17 03:23:41;;;;;;;;;;;19.80;50.50;;;;;;6046992;29;19924;-50
2023/01/17 03:26:43;;;;;;;;;;;19.50;50.50;;;;;;6048293;29;19924;-53
2023/01/17 03:29:45;;;;;;;;;;;20.70;51.20;;;;;;6048202;29;20285;-52
2023/01/17 03:32:46;;;;;;;;;;;19.70;50.80;;;;;;6047299;29;19931;-51
2023/01/17 03:35:48;;;;;;;;;;;20.00;50.80;;;;;;6048036;29;19947;-50
2023/01/17 03:38:49;;;;;;;;;;;19.60;50.70;;;;;;6047424;29;19924;-51
2023/01/17 03:41:50;;;;;;;;;;;20.60;51.10;;;;;;6047527;29;19927;-52
2023/01/17 03:44:52;;;;;;;;;;;19.80;50.90;;;;;;6047140;29;19931;-51
2023/01/17 03:47:56;;;;;;;;;;;19.90;50.90;;;;;;6047027;29;19924;-50
2023/01/17 03:50:57;;;;;;;;;;;19.60;50.80;;;;;;6046806;29;19931;-51
2023/01/17 03:54:00;;;;;;;;;;;20.20;51.00;;;;;;6030517;29;20408;-49
2023/01/17 03:57:01;;;;;;;;;;;19.60;50.50;;;;;;6046695;29;19984;-51
2023/01/17 04:00:03;;;;;;;;;;;19.70;51.00;;;;;;6046339;29;19934;-51
2023/01/17 04:03:08;;;;;;;;;;;19.80;50.80;;;;;;6047588;29;20004;-50
2023/01/17 04:06:09;;;;;;;;;;;19.60;50.90;;;;;;6030005;29;19958;-52
2023/01/17 04:09:11;;;;;;;;;;;19.60;50.90;;;;;;6045735;29;19931;-49
2023/01/17 04:12:12;;;;;;;;;;;20.10;51.00;;;;;;6046051;29;19924;-52
2023/01/17 04:15:14;;;;;;;;;;;20.10;51.20;;;;;;6046424;29;19996;-52
2023/01/17 04:18:16;;;;;;;;;;;19.70;51.00;;;;;;6045726;29;19924;-50
2023/01/17 04:21:17;;;;;;;;;;;19.60;50.90;;;;;;6045614;29;19924;-49
2023/01/17 04:24:19;;;;;;;;;;;19.40;50.90;;;;;;6043229;29;21257;-49
2023/01/17 04:27:20;;;;;;;;;;;19.70;51.10;;;;;;6044321;29;19924;-52
2023/01/17 04:30:21;;;;;;;;;;;19.70;51.10;;;;;;6045314;29;19931;-49
2023/01/17 04:33:23;;;;;;;;;;;19.70;51.10;;;;;;6043391;29;19923;-48
2023/01/17 04:36:25;;;;;;;;;;;20.20;50.90;;;;;;6046465;29;19931;-49
2023/01/17 04:39:26;;;;;;;;;;;19.60;51.10;;;;;;6046619;29;20376;-51
2023/01/17 04:42:27;;;;;;;;;;;19.60;51.20;;;;;;6046537;29;19932;-46
2023/01/17 04:45:28;;;;;;;;;;;19.80;51.20;;;;;;6046666;29;19924;-45
2023/01/17 04:48:32;;;;;;;;;;;19.60;51.10;;;;;;6047156;29;19931;-51
2023/01/17 04:51:33;;;;;;;;;;;19.50;51.00;;;;;;6045100;29;20376;-48
2023/01/17 04:54:34;;;;;;;;;;;19.80;51.30;;;;;;6044218;29;19931;-51
2023/01/17 04:57:35;;;;;;;;;;;19.70;51.30;;;;;;6045031;29;19924;-48
2023/01/17 05:00:37;;;;;;;;;;;19.70;51.20;;;;;;6044487;29;19924;-51
2023/01/17 05:03:39;;;;;;;;;;;19.90;51.40;;;;;;6043846;29;19924;-51
2023/01/17 05:06:40;;;;;;;;;;;20.50;51.60;;;;;;6043597;29;19924;-46
2023/01/17 05:09:42;;;;;;;;;;;19.80;51.30;;;;;;6043674;29;19980;-49
2023/01/17 05:12:51;;;;;;;;;;;20.00;51.30;;;;;;6043626;29;19949;-50
2023/01/17 05:15:53;;;;;;;;;;;19.70;51.10;;;;;;6043344;29;19924;-50
2023/01/17 05:18:55;;;;;;;;;;;19.60;51.30;;;;;;6045020;29;19924;-49
2023/01/17 05:22:02;;;;;;;;;;;19.80;51.30;;;;;;6047680;29;19924;-49
2023/01/17 05:25:04;;;;;;;;;;;19.60;51.20;;;;;;6047875;29;19931;-50
2023/01/17 05:28:05;;;;;;;;;;;19.70;51.20;;;;;;6047809;29;19931;-51
2023/01/17 05:31:06;;;;;;;;;;;20.60;51.80;;;;;;6047827;29;19931;-47
2023/01/17 05:34:09;;;;;;;;;;;19.60;51.20;;;;;;6047443;29;19924;-47
2023/01/17 05:37:10;;;;;;;;;;;19.70;51.30;;;;;;6047404;29;19924;-51
2023/01/17 05:40:12;;;;;;;;;;;19.80;51.30;;;;;;6047308;29;19928;-51
2023/01/17 05:43:13;;;;;;;;;;;19.50;51.20;;;;;;6046870;29;19973;-51
2023/01/17 05:46:16;;;;;;;;;;;20.00;51.50;;;;;;6048368;29;19923;-52
2023/01/17 05:49:18;;;;;;;;;;;20.60;51.80;;;;;;6048389;29;19931;-46
2023/01/17 05:52:20;;;;;;;;;;;19.90;51.40;;;;;;6049014;29;19932;-50
2023/01/17 05:55:22;;;;;;;;;;;19.70;51.40;;;;;;6047096;29;19953;-50
2023/01/17 05:58:23;;;;;;;;;;;19.70;51.20;;;;;;6031404;29;19924;-51
2023/01/17 06:01:24;;;;;;;;;;;19.90;51.50;;;;;;6048036;29;19924;-49
2023/01/17 06:04:26;;;;;;;;;;;19.40;51.30;;;;;;6047957;29;19931;-52
2023/01/17 06:07:29;;;;;;;;;;;20.50;51.80;;;;;;6047979;29;19946;-51
2023/01/17 06:10:30;;;;;;;;;;;19.80;51.00;;;;;;6047742;29;20341;-48
2023/01/17 06:13:32;;;;;;;;;;;19.50;51.30;;;;;;6050192;29;19924;-50
2023/01/17 06:16:34;;;;;;;;;;;19.90;51.70;;;;;;6048917;29;19924;-50
2023/01/17 06:19:36;;;;;;;;;;;20.10;51.50;;;;;;6049256;29;19931;-49
2023/01/17 06:22:37;;;;;;;;;;;19.70;51.60;;;;;;6048832;29;19924;-50
2023/01/17 06:25:39;;;;;;;;;;;19.50;51.60;;;;;;6050929;29;19931;-50
2023/01/17 06:28:40;;;;;;;;;;;19.50;51.40;;;;;;6034188;29;19956;-50
2023/01/17 06:31:41;;;;;;;;;;;20.30;52.00;;;;;;6048616;29;19928;-49
2023/01/17 06:34:43;;;;;;;;;;;19.70;51.10;;;;;;6050119;29;19935;-48
2023/01/17 06:37:44;;;;;;;;;;;19.60;51.60;;;;;;6049652;29;19931;-48
2023/01/17 06:40:46;;;;;;;;;;;19.70;51.60;;;;;;6050355;29;19931;-48
2023/01/17 06:43:47;;;;;;;;;;;20.10;51.30;;;;;;6049895;29;19924;-50
2023/01/17 06:46:49;;;;;;;;;;;19.70;51.40;;;;;;6049289;29;20419;-52
2023/01/17 06:49:51;;;;;;;;;;;20.30;52.10;;;;;;6048453;29;20413;-49
2023/01/17 06:52:54;;;;;;;;;;;19.60;51.60;;;;;;6047453;29;19957;-50
2023/01/17 06:55:56;;;;;;;;;;;20.40;52.00;;;;;;6031152;29;20289;-45
2023/01/17 06:58:58;;;;;;;;;;;19.50;51.50;;;;;;6044737;29;19924;-49
2023/01/17 07:01:59;;;;;;;;;;;20.10;51.90;;;;;;6046591;29;20023;-47
2023/01/17 07:05:01;;;;;;;;;;;19.60;51.50;;;;;;6053045;29;19923;-50
2023/01/17 07:08:02;;;;;;;;;;;20.10;52.00;;;;;;6055251;29;20447;-48
2023/01/17 07:11:05;;;;;;;;;;;19.50;51.50;;;;;;6048142;29;19924;-49
2023/01/17 07:14:11;;;;;;;;;;;20.10;51.70;;;;;;6047081;29;19924;-50
2023/01/17 07:17:12;;;;;;;;;;;19.50;51.50;;;;;;6047435;29;19924;-50
2023/01/17 07:20:14;;;;;;;;;;;19.90;51.80;;;;;;6044551;29;19924;-52
2023/01/17 07:23:16;;;;;;;;;;;19.80;51.70;;;;;;6049711;29;19948;-49
2023/01/17 07:26:17;;;;;;;;;;;20.40;51.90;;;;;;6045832;29;19924;-52
2023/01/17 07:29:19;;;;;;;;;;;19.70;51.20;;;;;;6046061;29;19927;-51
2023/01/17 07:32:20;;;;;;;;;;;20.00;51.00;;;;;;6044850;29;20396;-47
2023/01/17 07:35:25;;;;;;;;;;;19.90;51.50;;;;;;6044809;29;19976;-51
2023/01/17 07:38:26;;;;;;;;;;;20.20;51.30;;;;;;6045508;29;20338;-53
2023/01/17 07:41:29;;;;;;;;;;;20.00;51.40;;;;;;6044418;29;20014;-50
2023/01/17 07:44:31;;;;;;;;;;;20.30;51.50;;;;;;6039856;29;19974;-49
2023/01/17 07:47:32;;;;;;;;;;;19.50;51.10;;;;;;6042249;29;19924;-51
2023/01/17 07:50:35;;;;;;;;;;;20.10;51.60;;;;;;6040427;29;19931;-50
2023/01/17 07:53:36;;;;;;;;;;;19.80;51.30;;;;;;6024320;29;19924;-49
2023/01/17 07:56:38;;;;;;;;;;;20.50;51.60;;;;;;6037788;29;19972;-51
2023/01/17 07:59:40;;;;;;;;;;;19.60;50.60;;;;;;6037522;29;19924;-51
2023/01/17 08:02:41;;;;;;;;;;;20.30;51.50;;;;;;6034755;29;20330;-50
2023/01/17 08:05:51;;;;;;;;;;;19.70;50.80;;;;;;6034473;29;19931;-49
2023/01/17 08:08:55;;;;;;;;;;;20.90;51.60;;;;;;6034240;29;19931;-51
2023/01/17 08:11:57;;;;;;;;;;;20.10;51.10;;;;;;6034841;29;19924;-51
2023/01/17 08:14:58;;;;;;;;;;;20.60;51.50;;;;;;6034549;29;19924;-48
2023/01/17 08:17:59;;;;;;;;;;;20.10;51.10;;;;;;6040661;29;20214;-48
2023/01/17 08:21:01;;;;;;;;;;;20.40;51.10;;;;;;6044930;29;19953;-47
2023/01/17 08:24:03;;;;;;;;;;;20.10;51.10;;;;;;6044252;29;19924;-51
2023/01/17 08:27:07;;;;;;;;;;;20.40;51.00;;;;;;6044137;29;20419;-52
2023/01/17 08:30:09;;;;;;;;;;;20.20;51.10;;;;;;6037590;29;19994;-53
2023/01/17 08:33:10;;;;;;;;;;;20.70;51.30;;;;;;6038630;29;19935;-52
2023/01/17 08:36:12;;;;;;;;;;;19.80;50.60;;;;;;6033602;29;19928;-54
2023/01/17 08:39:14;;;;;;;;;;;20.90;51.20;;;;;;6035901;29;19924;-49
2023/01/17 08:42:15;;;;;;;;;;;20.40;50.70;;;;;;6033331;29;20380;-51
2023/01/17 08:45:17;;;;;;;;;;;20.50;50.30;;;;;;6033367;29;19923;-50
2023/01/17 08:48:18;;;;;;;;;;;20.00;50.60;;;;;;6033197;29;19924;-48
2023/01/17 08:51:20;;;;;;;;;;;20.60;51.20;;;;;;6033492;29;20276;-50
2023/01/17 08:54:22;;;;;;;;;;;19.90;50.70;;;;;;6035512;29;19960;-50
2023/01/17 08:57:24;;;;;;;;;;;20.50;50.80;;;;;;6037401;29;20285;-51
2023/01/17 09:00:27;;;;;;;;;;;20.60;50.80;;;;;;6038279;29;19984;-52
2023/01/17 09:03:28;;;;;;;;;;;20.80;51.10;;;;;;6037555;29;19928;-52
2023/01/17 09:06:36;;;;;;;;;;;20.50;50.70;;;;;;6036688;29;19923;-53
2023/01/17 09:09:42;;;;;;;;;;;20.60;47.90;;;;;;6021110;29;19924;-50
2023/01/17 09:12:44;;;;;;;;;;;20.50;50.90;;;;;;6037780;29;19931;-51
2023/01/17 09:15:45;;;;;;;;;;;20.90;51.10;;;;;;6037470;29;19924;-50
2023/01/17 09:18:47;;;;;;;;;;;20.20;50.50;;;;;;6037552;29;20296;-50
2023/01/17 09:21:49;;;;;;;;;;;20.90;51.30;;;;;;6037895;29;19952;-51
2023/01/17 09:24:51;;;;;;;;;;;20.00;50.70;;;;;;6037933;29;20296;-52
2023/01/17 09:27:52;;;;;;;;;;;20.60;50.80;;;;;;6036802;29;19928;-51
2023/01/17 09:30:54;;;;;;;;;;;20.10;50.40;;;;;;6036893;29;19924;-48
2023/01/17 09:33:56;;;;;;;;;;;20.80;51.00;;;;;;6036380;29;19924;-50
2023/01/17 09:36:58;;;;;;;;;;;20.60;50.90;;;;;;6020910;29;20381;-51
2023/01/17 09:39:59;;;;;;;;;;;21.10;51.00;;;;;;6037182;29;19973;-50
2023/01/17 09:43:04;;;;;;;;;;;20.20;50.30;;;;;;6037029;29;19935;-49
2023/01/17 09:46:07;;;;;;;;;;;20.90;50.90;;;;;;6036900;29;19946;-53
2023/01/17 09:49:13;;;;;;;;;;;20.10;50.40;;;;;;6036533;29;20304;-48
2023/01/17 09:52:16;;;;;;;;;;;20.80;50.10;;;;;;6036594;29;19924;-51
2023/01/17 09:55:18;;;;;;;;;;;20.30;50.70;;;;;;6036497;29;19924;-48
2023/01/17 09:58:21;;;;;;;;;;;21.00;51.00;;;;;;6036712;29;19947;-51
2023/01/17 10:01:27;;;;;;;;;;;20.10;50.40;;;;;;6036506;29;19924;-50
2023/01/17 10:04:35;;;;;;;;;;;20.70;50.70;;;;;;6036047;29;20022;-49
2023/01/17 10:07:42;;;;;;;;;;;20.50;50.50;;;;;;6037292;29;19924;-51
2023/01/17 10:10:52;;;;;;;;;;;20.70;50.50;;;;;;6036638;29;19924;-50
2023/01/17 10:14:00;;;;;;;;;;;20.50;50.50;;;;;;6035834;29;19931;-50
2023/01/17 10:17:07;;;;;;;;;;;20.70;50.50;;;;;;6036309;29;19928;-49
2023/01/17 10:20:14;;;;;;;;;;;18.20;49.30;;;;;;6036320;29;19931;-52
2023/01/17 10:23:25;;;;;;;;;;;20.50;50.50;;;;;;6036040;29;19924;-48
2023/01/17 10:26:27;;;;;;;;;;;20.30;50.40;;;;;;6036470;29;20298;-49
2023/01/17 10:29:31;;;;;;;;;;;20.80;47.90;;;;;;6036019;29;20410;-50
2023/01/17 10:32:34;;;;;;;;;;;20.30;50.40;;;;;;6036358;29;20281;-51
2023/01/17 10:35:35;;;;;;;;;;;20.70;50.80;;;;;;6036689;29;19924;-48
2023/01/17 10:38:38;;;;;;;;;;;20.50;50.60;;;;;;6035584;29;20380;-53
2023/01/17 10:41:41;;;;;;;;;;;21.10;51.00;;;;;;6035656;29;19924;-49
2023/01/17 10:44:47;;;;;;;;;;;20.60;50.70;;;;;;6018970;29;19923;-51
2023/01/17 10:47:54;;;;;;;;;;;20.90;50.70;;;;;;6035491;29;20325;-53
2023/01/17 10:50:58;;;;;;;;;;;20.80;50.90;;;;;;6035270;29;19924;-51
2023/01/17 10:54:09;;;;;;;;;;;21.10;50.90;;;;;;6035499;29;19931;-52
2023/01/17 10:57:12;;;;;;;;;;;20.80;50.60;;;;;;6035611;29;19924;-51
2023/01/17 11:00:21;;;;;;;;;;;20.80;50.50;;;;;;6034661;29;19924;-52
2023/01/17 11:03:23;;;;;;;;;;;20.40;50.30;;;;;;6035758;29;19935;-50
2023/01/17 11:06:25;;;;;;;;;;;21.10;51.00;;;;;;6035040;29;20329;-48
2023/01/17 11:09:36;;;;;;;;;;;20.30;50.20;;;;;;6035501;29;20366;-50
2023/01/17 11:12:38;;;;;;;;;;;20.80;50.40;;;;;;6019097;29;19966;-51
2023/01/17 11:15:45;;;;;;;;;;;20.70;50.40;;;;;;6034978;29;19924;-55
2023/01/17 11:18:47;;;;;;;;;;;20.90;50.50;;;;;;6018301;29;19988;-54
2023/01/17 11:21:51;;;;;;;;;;;20.40;50.20;;;;;;6018270;29;19931;-53
2023/01/17 11:24:54;;;;;;;;;;;21.30;50.70;;;;;;6018364;29;19928;-53
2023/01/17 11:27:58;;;;;;;;;;;20.80;50.80;;;;;;6034518;29;19924;-54
2023/01/17 11:31:02;;;;;;;;;;;20.90;50.40;;;;;;6018507;29;19924;-54
2023/01/17 11:34:06;;;;;;;;;;;20.30;50.30;;;;;;6018308;29;20013;-55
2023/01/17 11:37:08;;;;;;;;;;;21.00;50.60;;;;;;6034479;29;19924;-54
2023/01/17 11:40:17;;;;;;;;;;;20.60;50.40;;;;;;6034344;29;19924;-56
2023/01/17 11:43:20;;;;;;;;;;;21.10;50.80;;;;;;6034408;29;19930;-55
2023/01/17 11:46:23;;;;;;;;;;;20.50;50.30;;;;;;6017607;29;19923;-53
2023/01/17 11:49:25;;;;;;;;;;;21.00;50.50;;;;;;6034391;29;19924;-54
2023/01/17 11:52:31;;;;;;;;;;;20.70;50.60;;;;;;6037027;29;19931;-54
2023/01/17 11:55:33;;;;;;;;;;;21.40;50.80;;;;;;6024159;29;20346;-56
2023/01/17 11:58:37;;;;;;;;;;;20.80;50.70;;;;;;6038620;29;19930;-56
2023/01/17 12:01:42;;;;;;;;;;;21.20;50.80;;;;;;6035747;29;19947;-53
2023/01/17 12:04:46;;;;;;;;;;;20.30;50.20;;;;;;6038062;29;20308;-54
2023/01/17 12:07:53;;;;;;;;;;;21.20;50.70;;;;;;6043591;29;19924;-55
2023/01/17 12:11:00;;;;;;;;;;;20.90;50.60;;;;;;6035422;29;19931;-55
2023/01/17 12:14:05;;;;;;;;;;;21.00;50.50;;;;;;6039089;29;19928;-53
2023/01/17 12:17:13;;;;;;;;;;;20.60;50.50;;;;;;6038044;29;20023;-51
2023/01/17 12:20:19;;;;;;;;;;;20.90;50.50;;;;;;6038279;29;19924;-56
2023/01/17 12:23:34;;;;;;;;;;;21.30;50.70;;;;;;6019122;29;19931;-53
2023/01/17 12:26:37;;;;;;;;;;;20.90;50.60;;;;;;6035905;29;20289;-53
2023/01/17 12:29:45;;;;;;;;;;;20.40;50.40;;;;;;6034745;29;19953;-55
2023/01/17 12:32:53;;;;;;;;;;;20.60;50.50;;;;;;6033576;29;19924;-55
2023/01/17 12:35:55;;;;;;;;;;;20.50;50.30;;;;;;6034084;29;19930;-51
2023/01/17 12:39:00;;;;;;;;;;;21.30;50.90;;;;;;6033160;29;19967;-54
2023/01/17 12:42:04;;;;;;;;;;;20.50;50.50;;;;;;6017697;29;19932;-54
2023/01/17 12:45:09;;;;;;;;;;;21.30;51.40;;;;;;6034142;29;19924;-54
2023/01/17 12:48:11;;;;;;;;;;;20.70;50.50;;;;;;6035886;29;19928;-52
2023/01/17 12:51:15;;;;;;;;;;;21.30;50.90;;;;;;6020080;29;19928;-53
2023/01/17 12:54:18;;;;;;;;;;;21.00;50.70;;;;;;6037554;29;19924;-54
2023/01/17 12:57:22;;;;;;;;;;;20.90;47.70;;;;;;6017293;29;19924;-51
2023/01/17 13:00:25;;;;;;;;;;;20.60;50.70;;;;;;6018412;29;19927;-54
2023/01/17 13:03:30;;;;;;;;;;;21.10;50.80;;;;;;6035629;29;20329;-54
2023/01/17 13:06:39;;;;;;;;;;;20.50;50.60;;;;;;6020157;29;19924;-53
2023/01/17 13:09:43;;;;;;;;;;;21.10;50.20;;;;;;6034931;29;19928;-52
2023/01/17 13:12:45;;;;;;;;;;;20.90;50.70;;;;;;6036696;29;20277;-55
2023/01/17 13:15:48;;;;;;;;;;;21.00;50.70;;;;;;6034973;29;19924;-52
2023/01/17 13:18:50;;;;;;;;;;;21.00;50.90;;;;;;6034720;29;19976;-54
2023/01/17 13:21:52;;;;;;;;;;;21.00;50.60;;;;;;6033566;29;19924;-53
2023/01/17 13:24:59;;;;;;;;;;;20.70;50.80;;;;;;6032840;29;20273;-53
2023/01/17 13:28:05;;;;;;;;;;;21.50;51.10;;;;;;6033656;29;19966;-52
2023/01/17 13:31:13;;;;;;;;;;;20.70;50.70;;;;;;6035256;29;20293;-53
2023/01/17 13:34:24;;;;;;;;;;;21.30;50.70;;;;;;6020193;29;20350;-53
2023/01/17 13:37:40;;;;;;;;;;;20.80;50.80;;;;;;6039011;29;20349;-52
2023/01/17 13:40:47;;;;;;;;;;;21.10;50.60;;;;;;6040472;29;19924;-54
2023/01/17 13:47:26;;;;;;;;;;;21.30;51.30;;;;;;6033617;29;19931;-55
2023/01/17 13:50:42;;;;;;;;;;;20.50;50.90;;;;;;6030890;29;19924;-51
2023/01/17 13:53:45;;;;;;;;;;;21.50;51.30;;;;;;6041741;29;20437;-54
2023/01/17 13:56:46;;;;;;;;;;;20.90;51.00;;;;;;6044841;29;19972;-53
2023/01/17 13:59:49;;;;;;;;;;;21.00;51.10;;;;;;6040226;29;19931;-55
2023/01/17 14:02:50;;;;;;;;;;;20.80;51.00;;;;;;6039109;29;19924;-51
2023/01/17 14:05:55;;;;;;;;;;;21.30;51.20;;;;;;6041475;29;20336;-55
2023/01/17 14:08:59;;;;;;;;;;;21.00;50.90;;;;;;6040228;29;19976;-55
2023/01/17 14:12:03;;;;;;;;;;;20.70;50.40;;;;;;6032192;29;20392;-53
2023/01/17 14:15:17;;;;;;;;;;;20.70;51.00;;;;;;6047288;29;19947;-55
2023/01/17 14:18:29;;;;;;;;;;;21.10;51.00;;;;;;6047597;29;19931;-52
2023/01/17 14:21:31;;;;;;;;;;;20.60;50.90;;;;;;6047163;29;19924;-54
2023/01/17 14:24:33;;;;;;;;;;;20.90;51.10;;;;;;6049003;29;19928;-50
2023/01/17 14:27:39;;;;;;;;;;;20.40;51.40;;;;;;6041785;29;19935;-52
2023/01/17 14:30:41;;;;;;;;;;;21.10;50.00;;;;;;6040004;29;19940;-54
2023/01/17 14:33:42;;;;;;;;;;;20.80;51.30;;;;;;6043473;29;19924;-51
2023/01/17 14:36:45;;;;;;;;;;;21.10;51.20;;;;;;6047685;29;19924;-54
2023/01/17 14:39:47;;;;;;;;;;;20.50;51.00;;;;;;6045227;29;19928;-55
2023/01/17 14:42:53;;;;;;;;;;;21.60;51.60;;;;;;6048238;29;19924;-51
2023/01/17 14:45:57;;;;;;;;;;;21.20;51.40;;;;;;6043373;29;20321;-52
2023/01/17 14:48:59;;;;;;;;;;;21.00;51.00;;;;;;6043558;29;19931;-52
2023/01/17 14:52:01;;;;;;;;;;;21.10;51.30;;;;;;6034328;29;19924;-49
2023/01/17 14:55:14;;;;;;;;;;;21.30;51.50;;;;;;6046998;29;19935;-51
2023/01/17 14:58:15;;;;;;;;;;;20.80;51.20;;;;;;6031817;29;19924;-52
2023/01/17 15:01:19;;;;;;;;;;;21.20;51.50;;;;;;6047427;29;19999;-53
2023/01/17 15:04:24;;;;;;;;;;;21.00;51.40;;;;;;6038770;29;19928;-51
2023/01/17 15:07:26;;;;;;;;;;;21.30;52.10;;;;;;6057903;29;19924;-50
2023/01/17 15:10:28;;;;;;;;;;;20.90;50.70;;;;;;6053358;29;20019;-50
2023/01/17 15:13:31;;;;;;;;;;;21.40;51.60;;;;;;6045481;29;20015;-53
2023/01/17 15:16:45;;;;;;;;;;;20.60;51.20;;;;;;6044004;29;19924;-53
2023/01/17 15:19:49;;;;;;;;;;;21.20;51.60;;;;;;6039322;29;19924;-52
2023/01/17 15:22:51;;;;;;;;;;;20.60;51.40;;;;;;6041454;29;19931;-52
2023/01/17 15:25:53;;;;;;;;;;;21.20;51.70;;;;;;6042819;29;20226;-53
2023/01/17 15:29:00;;;;;;;;;;;20.70;51.40;;;;;;6041276;29;19931;-54
2023/01/17 15:32:03;;;;;;;;;;;21.50;51.90;;;;;;6043068;29;19932;-53
2023/01/17 15:35:07;;;;;;;;;;;20.60;51.50;;;;;;6026524;29;19924;-52
2023/01/17 15:38:12;;;;;;;;;;;21.20;48.60;;;;;;6042280;29;19924;-53
2023/01/17 15:41:15;;;;;;;;;;;20.60;51.30;;;;;;6043909;29;19924;-51
2023/01/17 15:44:33;;;;;;;;;;;21.60;52.10;;;;;;6043767;29;19932;-53
2023/01/17 15:47:49;;;;;;;;;;;20.60;51.50;;;;;;6033257;29;19924;-53
2023/01/17 15:50:56;;;;;;;;;;;21.30;51.80;;;;;;6045249;29;20281;-54
2023/01/17 15:53:58;;;;;;;;;;;20.70;51.60;;;;;;6050601;29;19924;-51
2023/01/17 15:57:01;;;;;;;;;;;21.10;51.90;;;;;;6052114;29;19924;-50
2023/01/17 16:00:06;;;;;;;;;;;20.80;51.80;;;;;;6041058;29;19934;-52
2023/01/17 16:03:20;;;;;;;;;;;21.50;52.20;;;;;;6054876;29;20010;-50
2023/01/17 16:06:34;;;;;;;;;;;20.90;51.80;;;;;;6055052;29;19927;-49
2023/01/17 16:09:41;;;;;;;;;;;20.90;51.40;;;;;;6049200;29;19931;-53
2023/01/17 16:12:42;;;;;;;;;;;21.10;52.10;;;;;;6032378;29;20341;-50
2023/01/17 16:15:43;;;;;;;;;;;21.00;52.30;;;;;;6042964;29;19928;-53
2023/01/17 16:18:45;;;;;;;;;;;20.60;52.10;;;;;;6054033;29;19959;-53
2023/01/17 16:21:47;;;;;;;;;;;21.20;52.60;;;;;;6050048;29;19987;-52
2023/01/17 16:24:48;;;;;;;;;;;20.70;52.40;;;;;;6045805;29;20381;-52
2023/01/17 16:27:50;;;;;;;;;;;21.50;52.90;;;;;;6041567;29;19924;-49
2023/01/17 16:30:53;;;;;;;;;;;20.80;52.40;;;;;;6027708;29;20282;-53
2023/01/17 16:33:55;;;;;;;;;;;21.10;52.70;;;;;;6041706;29;20377;-52
2023/01/17 16:36:57;;;;;;;;;;;20.70;52.60;;;;;;6041223;29;19924;-52
2023/01/17 16:39:58;;;;;;;;;;;20.80;54.10;;;;;;6040844;29;20274;-51
2023/01/17 16:43:00;;;;;;;;;;;20.80;55.80;;;;;;6040865;29;19931;-53
2023/01/17 16:46:01;;;;;;;;;;;21.20;56.90;;;;;;6044796;29;19924;-50
2023/01/17 16:49:03;;;;;;;;;;;21.00;58.30;;;;;;6045709;29;20433;-49
2023/01/17 16:52:05;;;;;;;;;;;21.30;60.20;;;;;;6045150;29;19924;-51
2023/01/17 16:55:07;;;;;;;;;;;20.60;60.00;;;;;;6044661;29;19931;-53
2023/01/17 16:58:10;;;;;;;;;;;21.80;61.70;;;;;;6034528;29;19931;-53
2023/01/17 17:01:14;;;;;;;;;;;20.70;62.80;;;;;;6051642;29;19924;-52
2023/01/17 17:04:16;;;;;;;;;;;20.80;66.70;;;;;;6051445;29;19940;-50
2023/01/17 17:07:17;;;;;;;;;;;20.90;59.70;;;;;;6050057;29;19932;-47
2023/01/17 17:10:20;;;;;;;;;;;20.90;58.50;;;;;;6047019;29;19924;-52
2023/01/17 17:13:22;;;;;;;;;;;21.00;59.10;;;;;;6048627;29;19924;-51
2023/01/17 17:16:25;;;;;;;;;;;20.90;58.70;;;;;;6051431;29;20352;-52
2023/01/17 17:19:27;;;;;;;;;;;20.70;58.60;;;;;;6052680;29;19924;-51
2023/01/17 17:22:28;;;;;;;;;;;21.60;59.40;;;;;;6054278;29;20338;-52
2023/01/17 17:25:30;;;;;;;;;;;20.80;59.00;;;;;;6052860;29;19924;-54
2023/01/17 17:28:31;;;;;;;;;;;21.30;59.30;;;;;;6052238;29;19931;-53
2023/01/17 17:31:32;;;;;;;;;;;20.80;58.40;;;;;;6035956;29;19924;-48
2023/01/17 17:34:37;;;;;;;;;;;21.50;59.40;;;;;;6051896;29;19924;-51
2023/01/17 17:37:38;;;;;;;;;;;20.80;58.90;;;;;;6048722;29;19931;-53
2023/01/17 17:40:39;;;;;;;;;;;20.70;58.00;;;;;;6057405;29;19924;-51
2023/01/17 17:43:41;;;;;;;;;;;20.60;58.50;;;;;;6060921;29;19924;-53
2023/01/17 17:46:43;;;;;;;;;;;21.20;58.70;;;;;;6056415;29;20300;-51
2023/01/17 17:49:45;;;;;;;;;;;20.70;58.70;;;;;;6057789;29;19949;-53
2023/01/17 17:52:46;;;;;;;;;;;21.00;58.60;;;;;;6062061;29;19924;-52
2023/01/17 17:55:49;;;;;;;;;;;20.70;58.40;;;;;;6060640;29;19931;-52
2023/01/17 17:58:51;;;;;;;;;;;20.80;57.70;;;;;;6059793;29;19931;-53
2023/01/17 18:01:52;;;;;;;;;;;20.80;57.70;;;;;;6062077;29;19935;-52
2023/01/17 18:04:54;;;;;;;;;;;21.50;58.80;;;;;;6059091;29;19931;-51
2023/01/17 18:07:56;;;;;;;;;;;20.80;58.50;;;;;;6059366;29;20270;-52
2023/01/17 18:10:58;;;;;;;;;;;20.70;57.70;;;;;;6059652;29;19908;-54
2023/01/17 18:14:00;;;;;;;;;;;20.60;58.10;;;;;;6060948;29;19924;-52
2023/01/17 18:17:01;;;;;;;;;;;21.50;58.70;;;;;;6047225;29;19912;-53
2023/01/17 18:20:04;;;;;;;;;;;20.80;58.20;;;;;;6064440;29;19916;-53
2023/01/17 18:23:08;;;;;;;;;;;20.80;58.40;;;;;;6063341;29;19935;-52
2023/01/17 18:26:18;;;;;;;;;;;20.60;58.50;;;;;;6063135;29;19908;-53
2023/01/17 18:29:20;;;;;;;;;;;21.40;58.70;;;;;;6037671;29;19924;-54
2023/01/17 18:32:22;;;;;;;;;;;20.40;58.30;;;;;;6058152;29;19932;-52
2023/01/17 18:35:24;;;;;;;;;;;20.80;58.80;;;;;;6060524;29;19928;-55
2023/01/17 18:38:27;;;;;;;;;;;20.60;58.90;;;;;;6060005;29;19924;-56
2023/01/17 18:41:30;;;;;;;;;;;20.90;58.00;;;;;;6058981;29;20457;-55
2023/01/17 18:44:31;;;;;;;;;;;20.40;58.50;;;;;;6042433;29;20364;-55
2023/01/17 18:47:32;;;;;;;;;;;20.60;58.20;;;;;;6060393;29;19924;-55
2023/01/17 18:50:34;;;;;;;;;;;20.50;58.20;;;;;;6059858;29;19935;-55
2023/01/17 18:53:36;;;;;;;;;;;21.20;59.30;;;;;;6061161;29;19931;-53
2023/01/17 18:56:37;;;;;;;;;;;20.40;58.90;;;;;;6045730;29;20000;-56
2023/01/17 18:59:39;;;;;;;;;;;21.10;59.30;;;;;;6062031;29;19924;-55
2023/01/17 19:02:41;;;;;;;;;;;20.50;59.10;;;;;;6061898;29;19924;-54
2023/01/17 19:05:43;;;;;;;;;;;21.40;59.80;;;;;;6062238;29;19924;-55
2023/01/17 19:08:45;;;;;;;;;;;20.40;59.30;;;;;;6061085;29;19924;-56
2023/01/17 19:11:46;;;;;;;;;;;20.50;58.70;;;;;;6132446;24;19971;-55